createdAt,value
2022-12-03T00:01:04.668Z,101412.33
2022-12-03T00:03:36.092Z,101415.16
2022-12-03T00:06:04.383Z,101414.52
2022-12-03T00:08:32.395Z,101408.39
2022-12-03T00:11:00.406Z,101411.58
2022-12-03T00:13:28.507Z,101407.66
2022-12-03T00:15:56.443Z,101403.22
2022-12-03T00:18:24.518Z,101403.34
2022-12-03T00:20:52.700Z,101397.71
2022-12-03T00:23:20.687Z,101394.11
2022-12-03T00:25:48.942Z,101390.89
2022-12-03T00:28:16.988Z,101385.66
2022-12-03T00:30:45.068Z,101385.06
2022-12-03T00:33:12.854Z,101385.66
2022-12-03T00:35:41.788Z,101383.62
2022-12-03T00:38:09.756Z,101382.71
2022-12-03T00:40:37.641Z,101380.94
2022-12-03T00:43:05.801Z,101383.11
2022-12-03T00:45:33.843Z,101383.05
2022-12-03T00:48:01.993Z,101380.05
2022-12-03T00:50:30.077Z,101374.77
2022-12-03T00:52:57.915Z,101377.23
2022-12-03T00:55:26.173Z,101373.63
2022-12-03T00:57:54.339Z,101376.50
2022-12-03T01:00:24.919Z,101376.77
2022-12-03T01:02:53.463Z,101373.29
2022-12-03T01:05:22.430Z,101373.05
2022-12-03T01:07:50.292Z,101375.38
2022-12-03T01:10:18.394Z,101374.26
2022-12-03T01:12:46.123Z,101373.32
2022-12-03T01:15:14.334Z,101374.59
2022-12-03T01:17:42.545Z,101372.45
2022-12-03T01:20:14.879Z,101373.64
2022-12-03T01:22:42.967Z,101365.08
2022-12-03T01:25:11.489Z,101362.13
2022-12-03T01:27:39.893Z,101366.49
2022-12-03T01:30:08.738Z,101369.61
2022-12-03T01:32:36.613Z,101366.95
2022-12-03T01:35:05.172Z,101363.95
2022-12-03T01:37:33.417Z,101361.10
2022-12-03T01:40:01.543Z,101367.87
2022-12-03T01:42:36.151Z,101372.61
2022-12-03T01:45:04.689Z,101369.95
2022-12-03T01:47:34.916Z,101367.30
2022-12-03T01:50:21.497Z,101367.56
2022-12-03T01:52:49.702Z,101359.66
2022-12-03T01:55:21.940Z,101358.60
2022-12-03T01:57:54.604Z,101352.40
2022-12-03T02:00:24.795Z,101348.27
2022-12-03T02:02:55.771Z,101344.85
2022-12-03T02:05:29.910Z,101343.50
2022-12-03T02:07:58.469Z,101352.46
2022-12-03T02:10:38.587Z,101356.95
2022-12-03T02:13:11.350Z,101361.26
2022-12-03T02:15:40.530Z,101360.75
2022-12-03T02:18:10.646Z,101355.11
2022-12-03T02:20:51.134Z,101361.60
2022-12-03T02:23:54.475Z,101356.83
2022-12-03T02:26:22.472Z,101362.96
2022-12-03T02:28:50.683Z,101358.90
2022-12-03T02:31:18.559Z,101362.94
2022-12-03T02:33:46.380Z,101363.72
2022-12-03T02:36:14.156Z,101366.34
2022-12-03T02:38:43.583Z,101377.52
2022-12-03T02:41:35.194Z,101391.52
2022-12-03T02:44:04.436Z,101395.89
2022-12-03T02:46:32.432Z,101399.34
2022-12-03T02:49:01.196Z,101403.02
2022-12-03T02:51:29.088Z,101402.87
2022-12-03T02:53:58.049Z,101402.45
2022-12-03T02:56:30.478Z,101401.13
2022-12-03T02:59:02.541Z,101393.15
2022-12-03T03:01:30.620Z,101400.86
2022-12-03T03:03:59.192Z,101402.32
2022-12-03T03:06:27.232Z,101400.43
2022-12-03T03:08:55.246Z,101409.39
2022-12-03T03:11:23.585Z,101410.95
2022-12-03T03:13:51.821Z,101414.27
2022-12-03T03:16:20.069Z,101417.23
2022-12-03T03:18:48.573Z,101415.91
2022-12-03T03:21:16.910Z,101419.73
2022-12-03T03:23:44.944Z,101419.37
2022-12-03T03:26:16.553Z,101425.35
2022-12-03T03:28:49.179Z,101426.32
2022-12-03T03:31:20.319Z,101425.40
2022-12-03T03:33:50.219Z,101425.88
2022-12-03T03:36:19.673Z,101426.50
2022-12-03T03:38:48.295Z,101426.86
2022-12-03T03:41:17.104Z,101426.61
2022-12-03T03:43:46.312Z,101430.98
2022-12-03T03:46:15.971Z,101433.61
2022-12-03T03:48:45.295Z,101434.79
2022-12-03T03:51:13.946Z,101432.12
2022-12-03T03:53:45.097Z,101433.09
2022-12-03T03:56:14.402Z,101438.62
2022-12-03T03:58:42.500Z,101436.21
2022-12-03T04:01:12.183Z,101433.80
2022-12-03T04:03:40.533Z,101434.96
2022-12-03T04:06:08.888Z,101429.84
2022-12-03T04:08:37.075Z,101426.55
2022-12-03T04:11:23.294Z,101425.96
2022-12-03T04:13:51.336Z,101420.21
2022-12-03T04:16:19.758Z,101418.86
2022-12-03T04:18:47.824Z,101417.42
2022-12-03T04:21:37.479Z,101409.67
2022-12-03T04:24:06.581Z,101405.04
2022-12-03T04:26:53.376Z,101403.70
2022-12-03T04:29:22.269Z,101397.80
2022-12-03T04:32:08.901Z,101401.87
2022-12-03T04:34:55.435Z,101402.93
2022-12-03T04:37:24.212Z,101409.30
2022-12-03T04:39:52.185Z,101411.61
2022-12-03T04:42:20.244Z,101413.80
2022-12-03T04:44:48.024Z,101414.70
2022-12-03T04:47:18.096Z,101415.80
2022-12-03T04:49:48.332Z,101421.33
2022-12-03T04:52:18.864Z,101422.65
2022-12-03T04:54:47.513Z,101425.55
2022-12-03T04:57:15.314Z,101430.38
2022-12-03T04:59:43.108Z,101430.39
2022-12-03T05:02:11.223Z,101430.21
2022-12-03T05:04:39.169Z,101430.02
2022-12-03T05:07:07.154Z,101426.41
2022-12-03T05:09:35.363Z,101422.13
2022-12-03T05:12:04.075Z,101424.33
2022-12-03T05:14:32.353Z,101422.27
2022-12-03T05:17:00.265Z,101418.00
2022-12-03T05:19:48.584Z,101416.38
2022-12-03T05:22:16.427Z,101413.83
2022-12-03T05:24:44.189Z,101418.33
2022-12-03T05:27:12.032Z,101411.61
2022-12-03T05:29:39.946Z,101414.52
2022-12-03T05:32:07.908Z,101411.05
2022-12-03T05:34:36.236Z,101414.40
2022-12-03T05:37:04.490Z,101416.12
2022-12-03T05:39:32.587Z,101418.59
2022-12-03T05:42:19.159Z,101424.94
2022-12-03T05:44:47.319Z,101425.27
2022-12-03T05:47:15.068Z,101422.55
2022-12-03T05:49:43.256Z,101420.33
2022-12-03T05:52:11.383Z,101421.39
2022-12-03T05:54:39.215Z,101423.09
2022-12-03T05:57:07.266Z,101424.10
2022-12-03T05:59:34.956Z,101430.47
2022-12-03T06:02:03.225Z,101434.13
2022-12-03T06:04:31.639Z,101438.96
2022-12-03T06:06:59.603Z,101439.64
2022-12-03T06:09:27.558Z,101443.36
2022-12-03T06:11:55.581Z,101450.36
2022-12-03T06:14:23.697Z,101462.20
2022-12-03T06:16:52.073Z,101457.93
2022-12-03T06:19:20.149Z,101462.45
2022-12-03T06:21:48.169Z,101462.73
2022-12-03T06:24:16.117Z,101460.80
2022-12-03T06:26:44.183Z,101461.71
2022-12-03T06:29:12.677Z,101460.77
2022-12-03T06:31:40.422Z,101460.59
2022-12-03T06:34:08.620Z,101456.92
2022-12-03T06:36:36.357Z,101457.65
2022-12-03T06:39:04.595Z,101462.37
2022-12-03T06:41:32.856Z,101461.75
2022-12-03T06:44:01.274Z,101464.73
2022-12-03T06:46:29.368Z,101462.91
2022-12-03T06:48:57.277Z,101464.56
2022-12-03T06:51:25.241Z,101463.14
2022-12-03T06:53:53.478Z,101468.23
2022-12-03T06:56:22.440Z,101472.61
2022-12-03T06:58:50.486Z,101475.77
2022-12-03T07:01:18.758Z,101477.80
2022-12-03T07:03:46.982Z,101480.14
2022-12-03T07:06:15.023Z,101483.55
2022-12-03T07:08:42.992Z,101483.48
2022-12-03T07:11:31.456Z,101485.63
2022-12-03T07:14:05.104Z,101492.05
2022-12-03T07:16:34.654Z,101492.20
2022-12-03T07:19:03.008Z,101493.52
2022-12-03T07:21:31.064Z,101496.35
2022-12-03T07:23:59.158Z,101497.60
2022-12-03T07:26:27.525Z,101501.42
2022-12-03T07:28:55.295Z,101505.79
2022-12-03T07:31:23.618Z,101508.50
2022-12-03T07:33:51.562Z,101509.08
2022-12-03T07:36:19.569Z,101510.59
2022-12-03T07:38:47.676Z,101508.73
2022-12-03T07:41:15.831Z,101514.41
2022-12-03T07:43:45.483Z,101517.50
2022-12-03T07:46:13.658Z,101516.88
2022-12-03T07:48:41.714Z,101520.47
2022-12-03T07:51:14.208Z,101520.12
2022-12-03T07:53:43.470Z,101520.49
2022-12-03T07:56:11.523Z,101521.91
2022-12-03T07:58:39.369Z,101522.96
2022-12-03T08:03:40.451Z,101519.83
2022-12-03T08:06:09.279Z,101520.12
2022-12-03T08:08:37.926Z,101522.56
2022-12-03T08:11:07.073Z,101528.42
2022-12-03T08:13:36.280Z,101528.86
2022-12-03T08:16:16.885Z,101531.60
2022-12-03T08:18:45.970Z,101529.23
2022-12-03T08:21:17.643Z,101528.55
2022-12-03T08:23:46.686Z,101532.11
2022-12-03T08:26:24.771Z,101529.40
2022-12-03T08:28:54.414Z,101531.17
2022-12-03T08:31:33.418Z,101532.88
2022-12-03T08:34:23.995Z,101536.44
2022-12-03T08:36:59.374Z,101534.70
2022-12-03T08:39:30.780Z,101536.89
2022-12-03T08:42:40.484Z,101536.70
2022-12-03T08:45:40.782Z,101538.03
2022-12-03T08:48:31.593Z,101537.79
2022-12-03T08:51:12.048Z,101542.33
2022-12-03T08:54:01.152Z,101542.10
2022-12-03T08:56:33.993Z,101540.79
2022-12-03T08:59:17.313Z,101544.38
2022-12-03T09:01:48.495Z,101547.00
2022-12-03T09:07:31.218Z,101555.17
2022-12-03T09:09:59.929Z,101556.29
2022-12-03T09:12:28.686Z,101560.86
2022-12-03T09:14:57.331Z,101560.96
2022-12-03T09:17:25.765Z,101562.95
2022-12-03T09:19:54.299Z,101567.14
2022-12-03T09:22:23.241Z,101569.13
2022-12-03T09:24:52.363Z,101574.51
2022-12-03T09:27:23.515Z,101567.90
2022-12-03T09:29:52.626Z,101576.83
2022-12-03T09:32:21.556Z,101576.67
2022-12-03T09:34:50.251Z,101573.45
2022-12-03T09:37:18.839Z,101579.06
2022-12-03T09:39:47.405Z,101581.53
2022-12-03T09:42:16.484Z,101581.64
2022-12-03T09:44:45.847Z,101589.42
2022-12-03T09:47:14.451Z,101592.63
2022-12-03T09:49:43.593Z,101591.92
2022-12-03T09:52:21.369Z,101591.75
2022-12-03T09:54:50.077Z,101592.46
2022-12-03T09:57:19.339Z,101592.34
2022-12-03T09:59:48.143Z,101597.16
2022-12-03T10:02:30.645Z,101602.81
2022-12-03T10:04:59.671Z,101605.06
2022-12-03T10:07:28.307Z,101606.42
2022-12-03T10:09:57.383Z,101609.38
2022-12-03T10:15:20.613Z,101611.00
2022-12-03T10:17:51.325Z,101616.30
2022-12-03T10:20:22.402Z,101621.70
2022-12-03T10:22:51.740Z,101624.08
2022-12-03T10:25:23.650Z,101622.66
2022-12-03T10:28:04.483Z,101617.64
2022-12-03T10:30:33.013Z,101622.13
2022-12-03T10:33:18.880Z,101628.70
2022-12-03T10:35:48.108Z,101630.41
2022-12-03T10:38:20.485Z,101627.72
2022-12-03T10:40:49.276Z,101628.02
2022-12-03T10:43:20.961Z,101628.84
2022-12-03T10:46:14.429Z,101627.02
2022-12-03T10:48:43.322Z,101632.30
2022-12-03T10:51:22.197Z,101632.58
2022-12-03T10:53:52.367Z,101632.36
2022-12-03T10:56:27.896Z,101630.22
2022-12-03T10:58:57.117Z,101631.52
2022-12-03T11:01:28.142Z,101631.65
2022-12-03T11:04:03.357Z,101630.41
2022-12-03T11:06:36.110Z,101627.48
2022-12-03T11:09:09.129Z,101627.01
2022-12-03T11:11:38.032Z,101625.73
2022-12-03T11:14:07.063Z,101628.23
2022-12-03T11:16:41.783Z,101623.38
2022-12-03T11:19:19.442Z,101624.80
2022-12-03T11:22:06.059Z,101627.55
2022-12-03T11:24:40.481Z,101628.45
2022-12-03T11:27:11.921Z,101626.34
2022-12-03T11:29:49.701Z,101625.13
2022-12-03T11:32:39.860Z,101621.17
2022-12-03T11:35:38.822Z,101623.11
2022-12-03T11:38:42.615Z,101623.80
2022-12-03T11:41:29.090Z,101625.73
2022-12-03T11:43:59.969Z,101620.90
2022-12-03T11:46:38.144Z,101624.48
2022-12-03T11:49:23.158Z,101623.16
2022-12-03T11:51:52.264Z,101617.44
2022-12-03T11:54:24.549Z,101627.84
2022-12-03T11:56:55.486Z,101631.84
2022-12-03T11:59:24.632Z,101639.07
2022-12-03T12:01:53.415Z,101641.28
2022-12-03T12:04:32.116Z,101644.75
2022-12-03T12:07:00.986Z,101649.33
2022-12-03T12:10:05.520Z,101643.59
2022-12-03T12:12:44.410Z,101636.40
2022-12-03T12:15:44.544Z,101634.11
2022-12-03T12:18:39.562Z,101631.91
2022-12-03T12:21:45.184Z,101635.27
2022-12-03T12:24:36.786Z,101637.15
2022-12-03T12:27:10.777Z,101636.30
2022-12-03T12:29:40.669Z,101639.13
2022-12-03T12:32:16.242Z,101636.77
2022-12-03T12:34:48.574Z,101639.70
2022-12-03T12:38:03.688Z,101640.19
2022-12-03T12:40:35.009Z,101644.92
2022-12-03T12:43:25.800Z,101644.83
2022-12-03T12:45:56.593Z,101642.04
2022-12-03T12:48:35.387Z,101640.39
2022-12-03T12:51:11.201Z,101640.48
2022-12-03T12:53:43.622Z,101643.14
2022-12-03T12:56:31.143Z,101642.52
2022-12-03T12:59:15.910Z,101640.35
2022-12-03T13:01:46.464Z,101641.23
2022-12-03T13:04:17.603Z,101643.80
2022-12-03T13:06:51.596Z,101649.34
2022-12-03T13:09:27.734Z,101651.00
2022-12-03T13:12:02.287Z,101650.15
2022-12-03T13:14:38.232Z,101646.48
2022-12-03T13:17:16.584Z,101646.84
2022-12-03T13:20:01.932Z,101648.65
2022-12-03T13:22:33.832Z,101650.58
2022-12-03T13:25:50.580Z,101647.86
2022-12-03T13:28:15.363Z,101647.69
2022-12-03T13:30:44.305Z,101654.29
2022-12-03T13:33:30.483Z,101647.77
2022-12-03T13:35:59.117Z,101652.23
2022-12-03T13:38:29.450Z,101652.75
2022-12-03T13:41:03.446Z,101650.88
2022-12-03T13:43:41.277Z,101650.96
2022-12-03T13:46:12.245Z,101649.61
2022-12-03T13:48:44.150Z,101647.57
2022-12-03T13:51:26.323Z,101648.58
2022-12-03T13:53:55.741Z,101651.30
2022-12-03T13:56:32.690Z,101644.45
2022-12-03T13:59:02.838Z,101643.16
2022-12-03T14:01:31.901Z,101643.58
2022-12-03T14:04:00.884Z,101641.04
2022-12-03T14:06:29.588Z,101635.35
2022-12-03T14:08:58.302Z,101635.59
2022-12-03T14:11:45.737Z,101630.53
2022-12-03T14:14:14.478Z,101637.91
2022-12-03T14:16:43.024Z,101641.57
2022-12-03T14:19:11.576Z,101639.88
2022-12-03T14:21:40.565Z,101636.48
2022-12-03T14:24:09.295Z,101641.46
2022-12-03T14:26:37.995Z,101644.22
2022-12-03T14:29:08.910Z,101641.55
2022-12-03T14:31:37.732Z,101637.46
2022-12-03T14:34:06.635Z,101641.30
2022-12-03T14:36:35.514Z,101640.20
2022-12-03T14:39:04.282Z,101642.31
2022-12-03T14:41:52.105Z,101644.56
2022-12-03T14:44:23.056Z,101643.40
2022-12-03T14:46:57.245Z,101641.68
2022-12-03T14:49:26.505Z,101640.00
2022-12-03T14:51:55.273Z,101642.42
2022-12-03T14:54:24.085Z,101640.03
2022-12-03T14:56:53.112Z,101640.21
2022-12-03T14:59:27.181Z,101634.92
2022-12-03T15:01:56.649Z,101633.90
2022-12-03T15:04:25.569Z,101638.22
2022-12-03T15:06:54.526Z,101639.60
2022-12-03T15:09:23.240Z,101641.23
2022-12-03T15:11:52.193Z,101646.33
2022-12-03T15:14:20.771Z,101653.80
2022-12-03T15:16:49.424Z,101660.00
2022-12-03T15:19:18.133Z,101673.27
2022-12-03T15:21:46.603Z,101677.26
2022-12-03T15:24:15.180Z,101680.82
2022-12-03T15:26:43.672Z,101683.23
2022-12-03T15:29:12.162Z,101692.23
2022-12-03T15:31:40.920Z,101699.02
2022-12-03T15:34:09.774Z,101696.63
2022-12-03T15:36:38.492Z,101701.07
2022-12-03T15:39:07.320Z,101700.82
2022-12-03T15:41:35.862Z,101709.25
2022-12-03T15:44:04.280Z,101710.80
2022-12-03T15:46:33.079Z,101710.85
2022-12-03T15:49:01.716Z,101711.13
2022-12-03T15:51:30.158Z,101709.92
2022-12-03T15:53:58.834Z,101712.95
2022-12-03T15:56:27.533Z,101717.13
2022-12-03T15:58:56.170Z,101718.15
2022-12-03T16:01:24.837Z,101719.92
2022-12-03T16:03:53.353Z,101723.59
2022-12-03T16:06:22.067Z,101727.70
2022-12-03T16:08:50.614Z,101729.23
2022-12-03T16:11:19.285Z,101733.30
2022-12-03T16:13:47.999Z,101738.84
2022-12-03T16:16:16.685Z,101748.42
2022-12-03T16:18:45.754Z,101750.58
2022-12-03T16:21:14.400Z,101755.64
2022-12-03T16:23:43.029Z,101756.36
2022-12-03T16:26:11.799Z,101757.09
2022-12-03T16:28:40.599Z,101759.31
2022-12-03T16:31:09.147Z,101762.23
2022-12-03T16:33:37.969Z,101764.71
2022-12-03T16:36:06.638Z,101769.34
2022-12-03T16:38:35.221Z,101778.86
2022-12-03T16:41:04.090Z,101786.89
2022-12-03T16:43:35.367Z,101790.52
2022-12-03T16:46:21.488Z,101788.10
2022-12-03T16:48:50.956Z,101793.77
2022-12-03T16:51:20.691Z,101798.25
2022-12-03T16:53:50.561Z,101801.67
2022-12-03T16:56:19.854Z,101806.44
2022-12-03T16:58:48.971Z,101809.45
2022-12-03T17:01:18.019Z,101817.16
2022-12-03T17:03:46.796Z,101819.28
2022-12-03T17:06:15.501Z,101821.77
2022-12-03T17:08:49.071Z,101820.69
2022-12-03T17:11:18.727Z,101823.25
2022-12-03T17:13:47.355Z,101823.88
2022-12-03T17:16:16.040Z,101827.45
2022-12-03T17:18:44.907Z,101824.16
2022-12-03T17:21:13.436Z,101828.28
2022-12-03T17:23:42.320Z,101832.08
2022-12-03T17:26:10.877Z,101834.44
2022-12-03T17:28:39.611Z,101832.23
2022-12-03T17:31:08.326Z,101831.20
2022-12-03T17:33:37.307Z,101828.29
2022-12-03T17:36:06.149Z,101829.80
2022-12-03T17:38:39.106Z,101838.67
2022-12-03T17:41:08.632Z,101846.84
2022-12-03T17:43:37.489Z,101847.86
2022-12-03T17:46:07.531Z,101842.98
2022-12-03T17:48:37.045Z,101841.32
2022-12-03T17:51:05.904Z,101844.48
2022-12-03T17:53:34.355Z,101846.41
2022-12-03T17:56:03.285Z,101854.96
2022-12-03T17:58:32.034Z,101856.39
2022-12-03T18:01:03.101Z,101860.89
2022-12-03T18:03:32.172Z,101863.77
2022-12-03T18:06:00.718Z,101869.79
2022-12-03T18:08:29.421Z,101872.94
2022-12-03T18:10:58.168Z,101874.08
2022-12-03T18:13:27.194Z,101882.02
2022-12-03T18:15:55.942Z,101889.50
2022-12-03T18:18:28.928Z,101889.18
2022-12-03T18:21:02.117Z,101886.98
2022-12-03T18:23:30.855Z,101890.21
2022-12-03T18:26:02.668Z,101899.02
2022-12-03T18:28:34.179Z,101902.82
2022-12-03T18:31:03.094Z,101903.25
2022-12-03T18:33:31.745Z,101904.61
2022-12-03T18:36:00.350Z,101904.02
2022-12-03T18:38:32.142Z,101907.34
2022-12-03T18:41:01.473Z,101908.80
2022-12-03T18:43:36.856Z,101908.80
2022-12-03T18:46:31.145Z,101908.92
2022-12-03T18:49:00.193Z,101911.45
2022-12-03T18:51:30.012Z,101918.25
2022-12-03T18:53:58.564Z,101916.90
2022-12-03T18:56:27.315Z,101918.67
2022-12-03T18:58:56.084Z,101923.31
2022-12-03T19:01:28.654Z,101926.02
2022-12-03T19:03:57.250Z,101921.68
2022-12-03T19:06:25.933Z,101917.17
2022-12-03T19:08:55.447Z,101910.71
2022-12-03T19:11:24.153Z,101907.10
2022-12-03T19:13:53.065Z,101913.21
2022-12-03T19:16:21.840Z,101909.21
2022-12-03T19:18:50.571Z,101908.33
2022-12-03T19:21:19.010Z,101914.95
2022-12-03T19:24:22.066Z,101916.77
2022-12-03T19:26:36.430Z,101913.31
2022-12-03T19:29:05.571Z,101916.15
2022-12-03T19:31:34.575Z,101915.88
2022-12-03T19:34:03.394Z,101918.99
2022-12-03T19:36:36.367Z,101917.88
2022-12-03T19:39:04.976Z,101917.15
2022-12-03T19:41:33.677Z,101916.74
2022-12-03T19:44:06.317Z,101919.31
2022-12-03T19:46:37.862Z,101920.22
2022-12-03T19:49:07.180Z,101919.16
2022-12-03T19:51:36.094Z,101914.59
2022-12-03T19:54:06.450Z,101914.50
2022-12-03T19:56:35.523Z,101918.50
2022-12-03T19:59:04.657Z,101914.29
2022-12-03T20:01:36.148Z,101909.41
2022-12-03T20:04:05.518Z,101898.67
2022-12-03T20:06:36.984Z,101892.23
2022-12-03T20:09:13.923Z,101891.27
2022-12-03T20:11:43.570Z,101894.56
2022-12-03T20:14:17.714Z,101899.18
2022-12-03T20:16:46.462Z,101899.58
2022-12-03T20:19:17.465Z,101897.58
2022-12-03T20:21:46.044Z,101894.45
2022-12-03T20:24:17.230Z,101891.51
2022-12-03T20:26:45.783Z,101889.15
2022-12-03T20:29:14.502Z,101881.96
2022-12-03T20:31:43.119Z,101880.58
2022-12-03T20:34:12.153Z,101877.09
2022-12-03T20:36:41.096Z,101879.80
2022-12-03T20:39:10.050Z,101879.17
2022-12-03T20:41:39.360Z,101878.64
2022-12-03T20:44:09.197Z,101879.00
2022-12-03T20:46:37.975Z,101873.77
2022-12-03T20:49:06.626Z,101872.39
2022-12-03T20:51:35.276Z,101869.64
2022-12-03T20:54:04.071Z,101866.14
2022-12-03T20:56:35.928Z,101867.94
2022-12-03T20:59:15.320Z,101870.58
2022-12-03T21:01:45.067Z,101876.35
2022-12-03T21:04:18.944Z,101875.92
2022-12-03T21:06:47.773Z,101869.84
2022-12-03T21:09:17.888Z,101872.23
2022-12-03T21:11:46.792Z,101873.36
2022-12-03T21:14:15.534Z,101873.95
2022-12-03T21:17:07.937Z,101877.16
2022-12-03T21:19:37.786Z,101881.92
2022-12-03T21:22:07.228Z,101884.84
2022-12-03T21:24:36.193Z,101881.79
2022-12-03T21:27:04.821Z,101874.68
2022-12-03T21:29:33.358Z,101872.19
2022-12-03T21:32:02.155Z,101871.76
2022-12-03T21:34:36.187Z,101863.09
2022-12-03T21:37:05.220Z,101860.65
2022-12-03T21:39:33.933Z,101860.95
2022-12-03T21:42:19.409Z,101860.40
2022-12-03T21:44:51.244Z,101859.44
2022-12-03T21:47:19.889Z,101859.00
2022-12-03T21:49:48.616Z,101860.45
2022-12-03T21:52:17.164Z,101855.55
2022-12-03T21:54:45.745Z,101849.58
2022-12-03T21:57:14.369Z,101842.96
2022-12-03T21:59:43.057Z,101843.74
2022-12-03T22:02:12.494Z,101845.76
2022-12-03T22:04:41.153Z,101837.00
2022-12-03T22:07:10.190Z,101835.86
2022-12-03T22:09:38.975Z,101836.81
2022-12-03T22:12:07.764Z,101834.48
2022-12-03T22:14:36.243Z,101832.29
2022-12-03T22:17:05.057Z,101832.00
2022-12-03T22:19:33.949Z,101828.21
2022-12-03T22:22:02.687Z,101830.23
2022-12-03T22:24:31.526Z,101827.52
2022-12-03T22:27:00.126Z,101824.67
2022-12-03T22:29:29.143Z,101824.65
2022-12-03T22:31:57.775Z,101826.84
2022-12-03T22:34:26.390Z,101817.56
2022-12-03T22:36:54.904Z,101816.54
2022-12-03T22:39:23.983Z,101819.14
2022-12-03T22:41:52.584Z,101819.09
2022-12-03T22:44:21.784Z,101823.54
2022-12-03T22:46:50.392Z,101821.44
2022-12-03T22:49:19.144Z,101824.26
2022-12-03T22:51:48.157Z,101826.34
2022-12-03T22:54:20.881Z,101830.13
2022-12-03T22:56:52.716Z,101831.30
2022-12-03T22:59:21.299Z,101831.29
2022-12-03T23:01:55.744Z,101829.64
2022-12-03T23:04:24.828Z,101832.48
2022-12-03T23:06:53.611Z,101839.84
2022-12-03T23:09:22.337Z,101836.46
2022-12-03T23:11:51.040Z,101837.55
2022-12-03T23:14:19.833Z,101843.31
2022-12-03T23:16:48.352Z,101843.23
2022-12-03T23:19:17.388Z,101849.55
2022-12-03T23:21:46.106Z,101848.65
2022-12-03T23:24:14.932Z,101849.05
2022-12-03T23:26:43.875Z,101849.58
2022-12-03T23:29:12.351Z,101854.23
2022-12-03T23:31:41.169Z,101855.27
2022-12-03T23:34:09.995Z,101859.77
2022-12-03T23:36:38.563Z,101863.77
2022-12-03T23:39:07.080Z,101861.89
2022-12-03T23:41:35.830Z,101860.20
2022-12-03T23:44:04.526Z,101856.13
2022-12-03T23:46:33.383Z,101854.64
2022-12-03T23:49:02.284Z,101853.80
2022-12-03T23:51:30.972Z,101856.02
2022-12-03T23:53:59.582Z,101861.50
2022-12-03T23:56:31.477Z,101860.17
2022-12-03T23:59:00.147Z,101855.41
